東京理科大学Ⅰ部体育局航空部

このエントリーをはてなブックマークに追加

ようこそ、理科大航空部HPへ! ここでは、航空部に関する情報や、活動などをお知らせしています。


METAR・TAF

TOKYO INTERNATIONAL
Metar
RJTT 161230Z 34015KT 9999 FEW030 23/12 Q0998 NOSIG RMK 1CU030 A2948

12:30 UTC

Wind: 340° 15kt

Visibility: 9999 m

Sky: FEW 3000 ft

Temp: 23 deg C / 73.4 deg F

Dewpoint: 12 deg C / 53.6 deg F

Pressure: 998 hPa

TAF
TAF RJTT 161105Z 1612/1718 32008KT 9999 FEW030 BECMG 1621/1623 34018KT BECMG 1703/1706 18014KT BECMG 1712/1715 10005KT BECMG 1715/1718 36006KT
NARITA INTERNATIONAL
Metar
RJAA 161230Z 27004KT 220V300 9999 FEW030 22/12 Q0998 NOSIG RMK 1CU030 A2947

12:30 UTC

Wind: 270° 4kt

Visibility: 9999 m

Sky: FEW 3000 ft

Temp: 22 deg C / 71.6 deg F

Dewpoint: 12 deg C / 53.6 deg F

Pressure: 998 hPa

TAF
TAF RJAA 161105Z 1612/1718 30008KT 9999 FEW030 BECMG 1706/1709 12006KT